Time;durP1;ratioP1;P1;durP2;ratioP2;P2;SDS_P1;SDS_P2;PMS_P1;PMS_P2;Temp;Humidity;BMP_temperature;BMP_pressure;BME280_temperature;BME280_humidity;BME280_pressure;Samples;Min_cycle;Max_cycle;Signal;HPM_P1;HPM_P2
2020/12/22 00:01:50;;;;;;;3.00;1.87;;;14.20;99.90;;;;;;4943646;29;20205;-79
2020/12/22 00:04:16;;;;;;;3.47;2.30;;;14.30;99.90;;;;;;4943261;29;20202;-78
2020/12/22 00:06:41;;;;;;;4.77;1.90;;;14.20;99.90;;;;;;4936361;29;20261;-78
2020/12/22 00:09:07;;;;;;;4.43;2.00;;;14.10;99.90;;;;;;4928318;29;20268;-78
2020/12/22 00:11:32;;;;;;;3.40;2.00;;;14.10;99.90;;;;;;4925410;29;20178;-79
2020/12/22 00:13:58;;;;;;;3.70;1.80;;;14.10;99.90;;;;;;4928304;29;20665;-78
2020/12/22 00:16:24;;;;;;;4.97;2.00;;;14.20;99.90;;;;;;4926971;29;20223;-79
2020/12/22 00:18:50;;;;;;;3.00;1.77;;;14.20;99.90;;;;;;4926207;29;20218;-78
2020/12/22 00:21:19;;;;;;;4.83;1.67;;;14.20;99.90;;;;;;4925853;29;20185;-78
2020/12/22 00:23:45;;;;;;;4.27;1.70;;;14.20;99.90;;;;;;4909104;29;20665;-77
2020/12/22 00:26:15;;;;;;;5.57;2.07;;;14.30;99.90;;;;;;4908388;29;20185;-78
2020/12/22 00:28:40;;;;;;;3.60;1.40;;;14.20;99.90;;;;;;4927799;29;20182;-79
2020/12/22 00:31:06;;;;;;;4.13;1.77;;;14.10;99.90;;;;;;4926228;29;20192;-78
2020/12/22 00:33:32;;;;;;;5.77;1.90;;;14.10;99.90;;;;;;4932151;29;20182;-79
2020/12/22 00:35:57;;;;;;;5.47;1.70;;;14.10;99.90;;;;;;4934037;29;20186;-79
2020/12/22 00:38:23;;;;;;;3.47;1.77;;;14.00;99.90;;;;;;4906618;29;20170;-79
2020/12/22 00:40:49;;;;;;;4.80;1.73;;;14.00;99.90;;;;;;4922558;29;20187;-78
2020/12/22 00:43:14;;;;;;;5.50;1.50;;;14.10;99.90;;;;;;4922090;29;20278;-80
2020/12/22 00:45:40;;;;;;;5.13;1.77;;;14.00;99.90;;;;;;4922549;29;20197;-80
2020/12/22 00:48:05;;;;;;;3.83;1.70;;;14.00;99.90;;;;;;4905920;29;20217;-78
2020/12/22 00:50:31;;;;;;;2.60;1.23;;;14.00;99.90;;;;;;4921675;29;20537;-80
2020/12/22 00:52:57;;;;;;;4.53;1.70;;;14.00;99.90;;;;;;4920244;29;20185;-82
2020/12/22 00:55:22;;;;;;;3.67;1.80;;;13.90;99.90;;;;;;4920406;29;20177;-79
2020/12/22 00:57:51;;;;;;;3.27;1.40;;;13.90;99.90;;;;;;4919935;29;20173;-79
2020/12/22 01:00:17;;;;;;;5.37;2.33;;;13.90;99.90;;;;;;4919226;29;20253;-79
2020/12/22 01:02:43;;;;;;;4.50;1.93;;;14.00;99.90;;;;;;4902875;29;20205;-81
2020/12/22 01:05:08;;;;;;;4.30;1.60;;;14.20;99.90;;;;;;4919050;29;20568;-81
2020/12/22 01:07:34;;;;;;;5.87;2.00;;;14.10;99.90;;;;;;4918788;29;20180;-79
2020/12/22 01:10:01;;;;;;;3.17;1.70;;;13.90;99.90;;;;;;4919135;29;20174;-79
2020/12/22 01:12:27;;;;;;;5.63;1.97;;;13.90;99.90;;;;;;4919101;29;20625;-79
2020/12/22 01:14:53;;;;;;;5.83;2.00;;;14.00;99.90;;;;;;4901800;29;20646;-79
2020/12/22 01:17:19;;;;;;;8.13;2.00;;;13.90;99.90;;;;;;4918172;29;20494;-78
2020/12/22 01:19:45;;;;;;;7.37;2.03;;;13.90;99.90;;;;;;4901276;29;20193;-79
2020/12/22 01:22:11;;;;;;;4.27;1.87;;;14.00;99.90;;;;;;4901655;29;20218;-79
2020/12/22 01:24:36;;;;;;;4.77;1.30;;;13.90;99.90;;;;;;4901298;29;20213;-77
2020/12/22 01:27:05;;;;;;;5.83;2.00;;;13.90;99.90;;;;;;4918286;29;20662;-78
2020/12/22 01:29:40;;;;;;;5.13;1.80;;;14.00;99.90;;;;;;4918447;29;20622;-78
2020/12/22 01:32:09;;;;;;;7.17;1.80;;;14.00;99.90;;;;;;4918582;29;20161;-79
2020/12/22 01:34:36;;;;;;;3.20;1.37;;;13.90;99.90;;;;;;4918397;29;20178;-79
2020/12/22 01:37:03;;;;;;;3.47;1.20;;;13.90;99.90;;;;;;4918222;29;20166;-79
2020/12/22 01:39:29;;;;;;;1.97;1.27;;;13.90;99.90;;;;;;4918503;29;20248;-79
2020/12/22 01:41:54;;;;;;;6.63;1.70;;;14.00;99.90;;;;;;4918223;29;20614;-80
2020/12/22 01:44:20;;;;;;;3.93;1.20;;;14.00;99.90;;;;;;4918157;29;20305;-79
2020/12/22 01:46:52;;;;;;;2.00;1.43;;;14.00;99.90;;;;;;4917576;29;20197;-80
2020/12/22 01:49:25;;;;;;;3.60;1.00;;;14.00;99.90;;;;;;4917763;29;20201;-79
2020/12/22 01:51:53;;;;;;;3.13;1.40;;;14.00;99.90;;;;;;4917646;29;20548;-79
2020/12/22 01:54:19;;;;;;;3.27;1.60;;;14.20;99.90;;;;;;4917924;29;20691;-80
2020/12/22 01:56:46;;;;;;;4.80;1.77;;;14.10;99.90;;;;;;4917495;29;20165;-79
2020/12/22 01:59:12;;;;;;;6.07;1.80;;;14.10;99.90;;;;;;4917443;29;20196;-78
2020/12/22 02:01:38;;;;;;;4.80;1.80;;;14.10;99.90;;;;;;4900055;29;20209;-79
2020/12/22 02:04:06;;;;;;;3.37;1.43;;;14.10;99.90;;;;;;4918529;29;20671;-79
2020/12/22 02:06:33;;;;;;;4.23;1.80;;;14.00;99.90;;;;;;4920254;29;20578;-79
2020/12/22 02:08:59;;;;;;;4.20;1.70;;;13.90;99.90;;;;;;4919348;29;20173;-79
2020/12/22 02:11:29;;;;;;;3.07;1.80;;;13.80;99.90;;;;;;4918072;29;20270;-78
2020/12/22 02:13:57;;;;;;;3.97;2.00;;;13.90;99.90;;;;;;4919997;29;20262;-78
2020/12/22 02:16:24;;;;;;;3.43;2.00;;;13.90;99.90;;;;;;4917663;29;20173;-79
2020/12/22 02:18:51;;;;;;;4.07;2.13;;;13.80;99.90;;;;;;4901102;29;20193;-80
2020/12/22 02:21:18;;;;;;;3.37;2.23;;;13.80;99.90;;;;;;4900303;29;20185;-80
2020/12/22 02:23:44;;;;;;;4.93;2.00;;;13.70;99.90;;;;;;4900685;29;20182;-80
2020/12/22 02:26:10;;;;;;;2.97;1.90;;;13.80;99.90;;;;;;4917155;29;20659;-77
2020/12/22 02:28:36;;;;;;;4.60;2.30;;;13.80;99.90;;;;;;4900385;29;20205;-79
2020/12/22 02:31:03;;;;;;;3.53;2.03;;;13.80;99.90;;;;;;4916863;29;20177;-78
2020/12/22 02:33:29;;;;;;;4.60;2.33;;;13.90;99.90;;;;;;4917585;29;20197;-78
2020/12/22 02:35:55;;;;;;;3.57;2.10;;;13.80;99.90;;;;;;4924706;29;20618;-77
2020/12/22 02:38:22;;;;;;;3.70;1.87;;;13.90;99.90;;;;;;4927552;29;20181;-80
2020/12/22 02:40:48;;;;;;;3.97;2.10;;;13.90;99.90;;;;;;4926414;29;20241;-80
2020/12/22 02:43:14;;;;;;;4.73;2.00;;;13.90;99.90;;;;;;4925227;29;20673;-77
2020/12/22 02:45:42;;;;;;;3.53;2.10;;;13.90;99.90;;;;;;4923395;29;20190;-78
2020/12/22 02:48:08;;;;;;;4.53;1.83;;;13.90;99.90;;;;;;4921897;29;20193;-79
2020/12/22 02:50:34;;;;;;;3.57;2.10;;;13.90;99.90;;;;;;4923029;29;20232;-78
2020/12/22 02:53:00;;;;;;;3.80;2.30;;;13.90;99.90;;;;;;4909045;29;20185;-78
2020/12/22 02:55:25;;;;;;;3.23;2.00;;;14.00;99.90;;;;;;4926832;29;20188;-79
2020/12/22 02:57:51;;;;;;;3.97;2.13;;;14.00;99.90;;;;;;4926149;29;20186;-77
2020/12/22 03:00:17;;;;;;;2.83;1.70;;;14.00;99.90;;;;;;4931266;29;20309;-79
2020/12/22 03:02:43;;;;;;;4.27;1.90;;;13.90;99.90;;;;;;4931009;29;20217;-76
2020/12/22 03:05:08;;;;;;;4.13;1.90;;;13.90;99.90;;;;;;4915321;29;20237;-78
2020/12/22 03:07:34;;;;;;;3.67;1.83;;;14.00;99.90;;;;;;4919298;29;20173;-80
2020/12/22 03:09:59;;;;;;;5.07;1.90;;;13.90;99.90;;;;;;4920683;29;20178;-80
2020/12/22 03:12:25;;;;;;;2.13;1.70;;;13.90;99.90;;;;;;4919767;29;20190;-80
2020/12/22 03:14:51;;;;;;;2.83;2.00;;;14.00;99.90;;;;;;4903363;29;20181;-79
2020/12/22 03:17:16;;;;;;;3.70;1.87;;;14.00;99.90;;;;;;4918945;29;20225;-79
2020/12/22 03:19:42;;;;;;;3.20;1.83;;;13.90;99.90;;;;;;4917677;29;20189;-78
2020/12/22 03:22:07;;;;;;;3.00;1.70;;;14.00;99.90;;;;;;4903917;29;20267;-77
2020/12/22 03:24:33;;;;;;;3.40;1.77;;;13.90;99.90;;;;;;4903936;29;20182;-80
2020/12/22 03:26:59;;;;;;;2.60;1.97;;;13.90;99.90;;;;;;4920816;29;20177;-79
2020/12/22 03:29:24;;;;;;;2.83;1.97;;;14.00;99.90;;;;;;4920089;29;20535;-80
2020/12/22 03:31:50;;;;;;;5.07;2.10;;;14.00;99.90;;;;;;4920578;29;20177;-79
2020/12/22 03:34:16;;;;;;;2.80;1.93;;;13.90;99.90;;;;;;4920325;29;20651;-79
2020/12/22 03:36:42;;;;;;;3.57;2.33;;;14.00;99.90;;;;;;4920317;29;20178;-80
2020/12/22 03:39:08;;;;;;;2.97;2.00;;;14.00;99.90;;;;;;4919989;29;20171;-80
2020/12/22 03:41:33;;;;;;;3.63;2.07;;;14.10;99.90;;;;;;4919970;29;20253;-79
2020/12/22 03:43:59;;;;;;;3.40;1.97;;;14.10;99.90;;;;;;4919673;29;20192;-80
2020/12/22 03:46:26;;;;;;;2.33;1.70;;;14.00;99.90;;;;;;4919736;29;20204;-79
2020/12/22 03:48:52;;;;;;;3.27;1.90;;;14.00;99.90;;;;;;4919545;29;20284;-80
2020/12/22 03:51:18;;;;;;;2.90;1.43;;;14.00;99.90;;;;;;4919905;29;20171;-80
2020/12/22 03:53:43;;;;;;;2.37;1.53;;;14.10;99.90;;;;;;4919564;29;20206;-80
2020/12/22 03:56:09;;;;;;;2.90;1.70;;;14.00;99.90;;;;;;4919885;29;20182;-79
2020/12/22 03:58:35;;;;;;;4.03;1.53;;;14.10;99.90;;;;;;4919450;29;20180;-80
2020/12/22 04:01:00;;;;;;;2.27;1.43;;;14.10;99.90;;;;;;4919985;29;20181;-79
2020/12/22 04:03:27;;;;;;;1.80;1.30;;;14.10;99.90;;;;;;4919359;29;20267;-79
2020/12/22 04:05:53;;;;;;;3.93;1.70;;;14.00;99.90;;;;;;4919476;29;20680;-79
2020/12/22 04:08:19;;;;;;;1.70;1.20;;;14.00;99.90;;;;;;4919354;29;20187;-80
2020/12/22 04:10:44;;;;;;;2.93;1.30;;;14.00;99.90;;;;;;4919351;29;20244;-79
2020/12/22 04:13:10;;;;;;;1.40;1.20;;;14.00;99.90;;;;;;4902021;29;20654;-78
2020/12/22 04:15:36;;;;;;;1.87;1.53;;;14.00;99.90;;;;;;4919185;29;20185;-80
2020/12/22 04:18:03;;;;;;;1.87;1.17;;;14.00;99.90;;;;;;4919319;29;20236;-79
2020/12/22 04:20:28;;;;;;;1.27;1.07;;;14.10;99.90;;;;;;4901883;29;20182;-79
2020/12/22 04:22:54;;;;;;;1.20;1.10;;;14.00;99.90;;;;;;4919203;29;20210;-80
2020/12/22 04:25:21;;;;;;;2.43;1.40;;;14.00;99.90;;;;;;4919266;29;20210;-79
2020/12/22 04:27:47;;;;;;;1.87;1.50;;;14.00;99.90;;;;;;4918973;29;20180;-80
2020/12/22 04:30:12;;;;;;;1.53;1.20;;;14.10;99.90;;;;;;4919060;29;20600;-77
2020/12/22 04:32:38;;;;;;;3.27;1.70;;;14.20;99.90;;;;;;4917896;29;20174;-78
2020/12/22 04:35:04;;;;;;;1.83;1.50;;;14.10;99.90;;;;;;4919958;29;20174;-78
2020/12/22 04:37:30;;;;;;;2.90;1.80;;;14.20;99.90;;;;;;4920009;29;20173;-81
2020/12/22 04:39:56;;;;;;;1.67;1.40;;;14.10;99.90;;;;;;4918900;29;20173;-79
2020/12/22 04:42:22;;;;;;;1.87;1.50;;;14.10;99.90;;;;;;4918911;29;20269;-78
2020/12/22 04:44:50;;;;;;;1.90;1.40;;;14.10;99.90;;;;;;4901587;29;20248;-79
2020/12/22 04:47:17;;;;;;;2.00;1.40;;;14.20;99.90;;;;;;4918736;29;20169;-79
2020/12/22 04:49:46;;;;;;;1.60;1.30;;;14.20;99.90;;;;;;4918449;29;20613;-77
2020/12/22 04:52:13;;;;;;;2.07;1.20;;;14.20;99.90;;;;;;4918605;29;20181;-78
2020/12/22 04:54:40;;;;;;;2.90;1.33;;;14.20;99.90;;;;;;4918191;29;20185;-80
2020/12/22 04:57:06;;;;;;;1.70;1.37;;;14.30;99.90;;;;;;4918298;29;20179;-80
2020/12/22 04:59:39;;;;;;;1.83;1.20;;;14.20;99.90;;;;;;4918685;29;20241;-78
2020/12/22 05:02:07;;;;;;;2.40;1.23;;;14.20;99.90;;;;;;4918519;29;20214;-80
2020/12/22 05:04:37;;;;;;;1.10;0.90;;;14.20;99.90;;;;;;4901076;29;20185;-79
2020/12/22 05:07:07;;;;;;;1.73;1.17;;;14.30;99.90;;;;;;4918455;29;20260;-80
2020/12/22 05:09:32;;;;;;;2.60;1.10;;;14.30;99.90;;;;;;4917983;29;20181;-79
2020/12/22 05:11:58;;;;;;;1.87;0.93;;;14.40;99.90;;;;;;4918232;29;20174;-80
2020/12/22 05:14:26;;;;;;;0.77;0.70;;;14.30;99.90;;;;;;4918367;29;20193;-80
2020/12/22 05:16:51;;;;;;;1.63;0.93;;;14.30;99.90;;;;;;4925700;29;20225;-79
2020/12/22 05:19:19;;;;;;;0.93;0.80;;;14.40;99.90;;;;;;4923141;29;20185;-78
2020/12/22 05:21:46;;;;;;;2.73;0.90;;;14.40;99.90;;;;;;4924835;29;20225;-79
2020/12/22 05:24:13;;;;;;;1.67;0.70;;;14.40;99.90;;;;;;4905874;29;20182;-78
2020/12/22 05:26:41;;;;;;;3.37;0.83;;;14.40;99.90;;;;;;4901033;29;20638;-79
2020/12/22 05:29:18;;;;;;;1.50;0.90;;;14.40;99.90;;;;;;4918290;29;20174;-80
2020/12/22 05:31:51;;;;;;;1.47;0.80;;;14.30;99.90;;;;;;4917758;29;20657;-78
2020/12/22 05:34:18;;;;;;;1.10;0.80;;;14.40;99.90;;;;;;4917459;29;20166;-78
2020/12/22 05:36:45;;;;;;;1.83;0.73;;;14.40;99.90;;;;;;4917627;29;20166;-78
2020/12/22 05:39:13;;;;;;;0.60;0.60;;;14.50;99.90;;;;;;4917247;29;20194;-79
2020/12/22 05:41:39;;;;;;;2.10;0.77;;;14.50;99.90;;;;;;4900371;29;20173;-79
2020/12/22 05:44:06;;;;;;;2.23;1.03;;;14.50;99.90;;;;;;4917241;29;20241;-80
2020/12/22 05:46:35;;;;;;;1.83;1.00;;;14.50;99.90;;;;;;4917415;29;20186;-77
2020/12/22 05:49:05;;;;;;;0.87;0.80;;;14.50;99.90;;;;;;4917496;29;20576;-78
2020/12/22 05:51:32;;;;;;;2.30;1.10;;;14.60;99.90;;;;;;4917343;29;20558;-79
2020/12/22 05:54:07;;;;;;;0.83;0.70;;;14.60;99.90;;;;;;4917045;29;20216;-78
2020/12/22 05:56:33;;;;;;;1.47;0.83;;;14.60;99.90;;;;;;4917096;29;20309;-78
2020/12/22 05:58:59;;;;;;;2.17;1.03;;;14.60;99.90;;;;;;4917412;29;20195;-78
2020/12/22 06:01:35;;;;;;;1.63;0.90;;;14.60;99.90;;;;;;4900566;29;20317;-78
2020/12/22 06:04:04;;;;;;;2.33;1.10;;;14.60;99.90;;;;;;4918487;29;20182;-80
2020/12/22 06:06:31;;;;;;;1.60;1.00;;;14.60;99.90;;;;;;4919973;29;20261;-80
2020/12/22 06:09:00;;;;;;;1.30;0.90;;;14.60;99.90;;;;;;4917804;29;20188;-80
2020/12/22 06:11:29;;;;;;;2.40;1.00;;;14.60;99.90;;;;;;4917026;29;20181;-81
2020/12/22 06:13:57;;;;;;;2.40;0.90;;;14.60;99.90;;;;;;4917094;29;20582;-79
2020/12/22 06:16:23;;;;;;;1.20;0.90;;;14.50;99.90;;;;;;4916980;29;20166;-78
2020/12/22 06:18:51;;;;;;;2.03;1.10;;;14.60;99.90;;;;;;4899913;29;20185;-80
2020/12/22 06:21:18;;;;;;;3.03;0.90;;;14.60;99.90;;;;;;4916813;29;20167;-80
2020/12/22 06:23:46;;;;;;;2.03;0.90;;;14.60;99.90;;;;;;4916929;29;20209;-79
2020/12/22 06:26:13;;;;;;;2.83;0.93;;;14.60;99.90;;;;;;4899641;29;20181;-78
2020/12/22 06:28:40;;;;;;;3.07;1.13;;;14.70;99.90;;;;;;4900124;29;20192;-80
2020/12/22 06:31:23;;;;;;;3.33;1.23;;;14.60;99.90;;;;;;4916862;29;20650;-80
2020/12/22 06:33:50;;;;;;;2.23;0.93;;;14.60;99.90;;;;;;4899811;29;20229;-81
2020/12/22 06:36:19;;;;;;;2.50;1.10;;;14.80;99.90;;;;;;4916706;29;20653;-80
2020/12/22 06:38:53;;;;;;;1.80;0.70;;;14.70;99.90;;;;;;4916823;29;20182;-80
2020/12/22 06:41:25;;;;;;;1.63;0.63;;;14.60;99.90;;;;;;4917004;29;20177;-80
2020/12/22 06:43:52;;;;;;;1.23;0.60;;;14.50;99.90;;;;;;4916574;29;20217;-79
2020/12/22 06:46:33;;;;;;;1.63;0.70;;;14.50;99.90;;;;;;4900078;29;20213;-77
2020/12/22 06:48:59;;;;;;;1.10;0.70;;;14.60;99.90;;;;;;4899672;29;20232;-80
2020/12/22 06:51:36;;;;;;;1.17;0.83;;;14.50;99.90;;;;;;4916481;29;20173;-79
2020/12/22 06:54:25;;;;;;;1.87;0.90;;;14.50;99.90;;;;;;4916931;29;20565;-79
2020/12/22 06:56:51;;;;;;;1.73;0.80;;;14.50;99.90;;;;;;4919573;29;20181;-80
2020/12/22 06:59:42;;;;;;;2.63;1.07;;;14.40;99.90;;;;;;4920817;29;20519;-79
2020/12/22 07:02:31;;;;;;;2.93;1.20;;;14.50;99.90;;;;;;4921846;29;20210;-79
2020/12/22 07:04:57;;;;;;;3.00;1.10;;;14.50;99.90;;;;;;4921613;29;20202;-79
2020/12/22 07:07:23;;;;;;;2.20;0.80;;;14.50;99.90;;;;;;4920006;29;20610;-78
2020/12/22 07:09:58;;;;;;;2.63;1.03;;;14.60;99.90;;;;;;4920331;29;20174;-76
2020/12/22 07:12:26;;;;;;;1.73;0.90;;;14.60;99.90;;;;;;4920118;29;20183;-77
2020/12/22 07:14:51;;;;;;;1.60;0.87;;;14.50;99.90;;;;;;4920969;29;20177;-79
2020/12/22 07:17:21;;;;;;;2.10;1.10;;;14.50;99.90;;;;;;4903293;29;20634;-79
2020/12/22 07:19:48;;;;;;;1.83;1.00;;;14.50;99.90;;;;;;4920040;29;20182;-79
2020/12/22 07:22:18;;;;;;;1.27;1.10;;;14.50;99.90;;;;;;4919807;29;20209;-78
2020/12/22 07:24:44;;;;;;;3.37;1.00;;;14.60;99.90;;;;;;4920132;29;20166;-78
2020/12/22 07:27:12;;;;;;;1.27;0.80;;;14.60;99.90;;;;;;4920068;29;20713;-80
2020/12/22 07:29:42;;;;;;;1.03;0.73;;;14.50;99.90;;;;;;4920113;29;20174;-80
2020/12/22 07:32:08;;;;;;;2.63;0.83;;;14.50;99.90;;;;;;4920270;29;20316;-80
2020/12/22 07:34:36;;;;;;;1.33;0.87;;;14.50;99.90;;;;;;4919469;29;20173;-79
2020/12/22 07:37:12;;;;;;;2.07;0.83;;;14.50;99.90;;;;;;4919994;29;20159;-78
2020/12/22 07:39:39;;;;;;;2.70;1.20;;;14.40;99.90;;;;;;4920107;29;20312;-78
2020/12/22 07:42:17;;;;;;;1.87;1.20;;;14.40;99.90;;;;;;4920036;29;20209;-79
2020/12/22 07:44:44;;;;;;;4.60;1.83;;;14.30;99.90;;;;;;4919777;29;20186;-79
2020/12/22 07:47:13;;;;;;;3.17;1.80;;;14.20;99.90;;;;;;4919916;29;20174;-80
2020/12/22 07:49:46;;;;;;;3.33;2.10;;;14.10;99.90;;;;;;4919430;29;20192;-76
2020/12/22 07:52:21;;;;;;;2.73;1.90;;;14.10;99.90;;;;;;4902709;29;20717;-81
2020/12/22 07:55:07;;;;;;;3.40;1.80;;;14.00;99.90;;;;;;4919688;29;20165;-78
2020/12/22 07:57:36;;;;;;;3.23;1.60;;;14.10;99.90;;;;;;4919714;29;20298;-80
2020/12/22 08:00:09;;;;;;;2.27;1.47;;;14.00;99.90;;;;;;4919593;29;20169;-78
2020/12/22 08:02:35;;;;;;;3.93;1.70;;;14.00;99.90;;;;;;4919447;29;20205;-78
2020/12/22 08:05:14;;;;;;;3.90;1.53;;;14.00;99.90;;;;;;4919313;29;20553;-77
2020/12/22 08:07:42;;;;;;;2.10;1.20;;;14.00;99.90;;;;;;4919605;29;20630;-80
2020/12/22 08:10:14;;;;;;;2.40;1.67;;;14.00;99.90;;;;;;4919216;29;20158;-80
2020/12/22 08:12:40;;;;;;;2.27;1.20;;;14.00;99.90;;;;;;4919600;29;20170;-80
2020/12/22 08:15:06;;;;;;;5.97;1.30;;;14.00;99.90;;;;;;4921039;29;20150;-80
2020/12/22 08:17:37;;;;;;;2.97;1.20;;;14.00;99.90;;;;;;4921556;29;20193;-80
2020/12/22 08:20:03;;;;;;;3.20;1.40;;;14.00;99.90;;;;;;4919722;29;20182;-80
2020/12/22 08:22:30;;;;;;;2.87;1.30;;;14.00;99.90;;;;;;4919494;29;20227;-77
2020/12/22 08:24:56;;;;;;;2.03;1.53;;;14.00;99.90;;;;;;4922300;29;20174;-80
2020/12/22 08:27:24;;;;;;;1.83;1.43;;;14.10;99.90;;;;;;4920897;29;20166;-79
2020/12/22 08:29:50;;;;;;;3.87;1.93;;;14.00;99.90;;;;;;4902186;29;20251;-76
2020/12/22 08:32:23;;;;;;;2.20;1.20;;;13.90;99.90;;;;;;4919092;29;20233;-79
2020/12/22 08:34:52;;;;;;;2.40;1.40;;;14.00;99.90;;;;;;4902143;29;20217;-79
2020/12/22 08:37:27;;;;;;;1.83;1.27;;;13.90;99.90;;;;;;4918960;29;20182;-80
2020/12/22 08:39:54;;;;;;;2.03;1.10;;;13.90;99.90;;;;;;4919154;29;20213;-79
2020/12/22 08:42:21;;;;;;;3.80;1.73;;;13.90;99.90;;;;;;4918705;29;20233;-77
2020/12/22 08:44:51;;;;;;;2.73;1.07;;;13.90;99.90;;;;;;4918970;29;20193;-79
2020/12/22 08:47:18;;;;;;;3.37;1.30;;;13.80;99.90;;;;;;4928758;29;20162;-78
2020/12/22 08:49:45;;;;;;;3.83;0.97;;;13.80;99.90;;;;;;4902745;29;20197;-80
2020/12/22 08:52:20;;;;;;;3.80;1.60;;;13.70;99.90;;;;;;4919031;29;20559;-79
2020/12/22 08:54:47;;;;;;;2.37;1.17;;;13.70;99.90;;;;;;4901305;29;20169;-80
2020/12/22 08:57:18;;;;;;;2.03;1.10;;;13.70;99.90;;;;;;4918345;29;20170;-79
2020/12/22 08:59:45;;;;;;;1.60;1.00;;;13.70;99.90;;;;;;4918749;29;20172;-79
2020/12/22 09:02:29;;;;;;;1.87;0.90;;;13.80;99.90;;;;;;4918184;29;20193;-79
2020/12/22 09:04:55;;;;;;;4.60;1.03;;;13.80;99.90;;;;;;4918712;29;20201;-80
2020/12/22 09:07:25;;;;;;;6.37;1.33;;;13.80;99.90;;;;;;4918712;29;20162;-80
2020/12/22 09:09:51;;;;;;;3.93;1.03;;;13.90;99.90;;;;;;4919055;29;20170;-81
2020/12/22 09:12:17;;;;;;;4.07;1.00;;;13.80;99.90;;;;;;4919603;29;20158;-80
2020/12/22 09:14:48;;;;;;;3.57;0.97;;;13.80;99.90;;;;;;4901969;29;20628;-78
2020/12/22 09:17:30;;;;;;;2.87;1.20;;;13.80;99.90;;;;;;4918875;29;20256;-79
2020/12/22 09:19:56;;;;;;;4.90;1.40;;;13.90;99.90;;;;;;4901774;29;20189;-78
2020/12/22 09:22:24;;;;;;;3.20;1.00;;;13.90;99.90;;;;;;4920041;29;20205;-78
2020/12/22 09:25:03;;;;;;;2.67;1.03;;;13.90;99.90;;;;;;4919669;29;20257;-78
2020/12/22 09:27:42;;;;;;;2.93;1.23;;;13.90;99.90;;;;;;4920430;29;20177;-81
2020/12/22 09:30:13;;;;;;;3.97;1.23;;;14.00;99.90;;;;;;4919445;29;20200;-78
2020/12/22 09:32:40;;;;;;;6.27;1.23;;;14.00;99.90;;;;;;4919409;29;20185;-80
2020/12/22 09:35:06;;;;;;;2.97;0.90;;;13.90;99.90;;;;;;4920702;29;20638;-80
2020/12/22 09:37:32;;;;;;;3.27;1.00;;;14.00;99.90;;;;;;4921016;29;20174;-80
2020/12/22 09:39:57;;;;;;;2.17;0.90;;;14.00;99.90;;;;;;4919525;29;20294;-79
2020/12/22 09:42:24;;;;;;;5.20;1.20;;;14.00;99.90;;;;;;4919040;29;20674;-80
2020/12/22 09:44:51;;;;;;;5.63;1.17;;;14.00;99.90;;;;;;4920136;29;20198;-80
2020/12/22 09:47:17;;;;;;;3.00;1.20;;;14.00;99.90;;;;;;4920305;29;20182;-81
2020/12/22 09:49:42;;;;;;;3.80;0.87;;;14.00;99.90;;;;;;4920022;29;20201;-78
2020/12/22 09:52:08;;;;;;;2.17;1.10;;;14.20;99.90;;;;;;4919904;29;20172;-79
2020/12/22 09:54:34;;;;;;;4.33;1.07;;;14.10;99.90;;;;;;4919116;29;20190;-79
2020/12/22 09:57:00;;;;;;;4.17;1.63;;;14.10;99.90;;;;;;4919924;29;20180;-80
2020/12/22 09:59:26;;;;;;;3.10;1.30;;;14.10;99.90;;;;;;4921859;29;20217;-78
2020/12/22 10:01:52;;;;;;;8.13;1.30;;;14.10;99.90;;;;;;4913574;29;20271;-78
2020/12/22 10:04:18;;;;;;;4.23;1.30;;;14.10;99.90;;;;;;4925901;29;20177;-79
2020/12/22 10:06:44;;;;;;;2.80;1.00;;;14.10;99.90;;;;;;4921625;29;20166;-81
2020/12/22 10:09:11;;;;;;;4.50;1.20;;;14.10;99.90;;;;;;4904540;29;20192;-80
2020/12/22 10:11:37;;;;;;;2.53;1.07;;;14.10;99.90;;;;;;4904184;29;20198;-80
2020/12/22 10:14:04;;;;;;;2.33;1.00;;;14.10;99.90;;;;;;4928176;29;20230;-80
2020/12/22 10:16:30;;;;;;;3.00;1.20;;;14.10;99.90;;;;;;4922836;29;20181;-81
2020/12/22 10:18:57;;;;;;;3.03;1.30;;;14.20;99.90;;;;;;4920283;29;20174;-80
2020/12/22 10:21:23;;;;;;;4.23;1.10;;;14.20;99.90;;;;;;4919759;29;20220;-81
2020/12/22 10:23:50;;;;;;;3.07;1.00;;;14.20;99.90;;;;;;4919287;29;20213;-79
2020/12/22 10:26:19;;;;;;;4.10;1.30;;;14.20;99.90;;;;;;4919240;29;20188;-82
2020/12/22 10:28:46;;;;;;;6.77;1.60;;;14.30;99.90;;;;;;4918233;29;20208;-79
2020/12/22 10:31:14;;;;;;;4.00;1.57;;;14.30;99.90;;;;;;4917701;29;20176;-80
2020/12/22 10:33:40;;;;;;;3.00;1.40;;;14.30;99.90;;;;;;4918952;29;20182;-80
2020/12/22 10:36:06;;;;;;;3.80;1.30;;;14.30;99.90;;;;;;4918857;29;20181;-80
2020/12/22 10:38:32;;;;;;;3.53;1.30;;;14.30;99.90;;;;;;4918008;29;20184;-79
2020/12/22 10:40:58;;;;;;;2.67;1.40;;;14.30;99.90;;;;;;4918134;29;20256;-79
2020/12/22 10:43:23;;;;;;;3.73;1.20;;;14.30;99.90;;;;;;4917801;29;20213;-79
2020/12/22 10:45:49;;;;;;;2.00;0.97;;;14.20;99.90;;;;;;4918694;29;20232;-81
2020/12/22 10:48:15;;;;;;;3.20;1.13;;;14.30;99.90;;;;;;4917691;29;20205;-78
2020/12/22 10:50:40;;;;;;;1.27;0.83;;;14.00;99.90;;;;;;4901091;29;20196;-80
2020/12/22 10:53:08;;;;;;;3.13;1.20;;;13.90;99.90;;;;;;4918851;29;20245;-81
2020/12/22 10:55:34;;;;;;;1.43;1.00;;;14.00;99.90;;;;;;4918955;29;20260;-78
2020/12/22 10:58:00;;;;;;;2.87;1.03;;;14.00;99.90;;;;;;4901738;29;20256;-80
2020/12/22 11:00:27;;;;;;;2.20;1.07;;;14.00;99.90;;;;;;4902005;29;20173;-79
2020/12/22 11:02:54;;;;;;;1.93;1.00;;;14.00;99.90;;;;;;4918708;29;20260;-81
2020/12/22 11:08:22;;;;;;;3.13;1.00;;;14.10;99.90;;;;;;4887215;29;20197;-80
2020/12/22 11:10:48;;;;;;;2.90;0.83;;;14.10;99.90;;;;;;4918128;29;20170;-80
2020/12/22 11:13:14;;;;;;;3.43;0.80;;;14.20;99.90;;;;;;4918804;29;20197;-80
2020/12/22 11:15:39;;;;;;;4.03;1.13;;;14.20;99.90;;;;;;4918237;29;20169;-80
2020/12/22 11:18:05;;;;;;;2.47;1.23;;;14.10;99.90;;;;;;4917789;29;20181;-81
2020/12/22 11:20:30;;;;;;;3.67;1.13;;;14.10;99.90;;;;;;4918202;29;20170;-78
2020/12/22 11:22:56;;;;;;;2.10;1.00;;;14.10;99.90;;;;;;4918607;29;20213;-79
2020/12/22 11:25:22;;;;;;;4.37;1.30;;;14.10;99.90;;;;;;4918029;29;20170;-80
2020/12/22 11:27:48;;;;;;;5.63;1.43;;;14.20;99.90;;;;;;4918404;29;20171;-80
2020/12/22 11:30:14;;;;;;;3.97;1.43;;;14.10;99.90;;;;;;4918619;29;20174;-80
2020/12/22 11:32:41;;;;;;;2.47;1.33;;;14.20;99.90;;;;;;4918809;29;20232;-78
2020/12/22 11:35:08;;;;;;;3.73;1.20;;;14.20;99.90;;;;;;4901070;29;20178;-79
2020/12/22 11:37:34;;;;;;;3.73;1.33;;;14.30;99.90;;;;;;4917414;29;20697;-82
2020/12/22 11:40:00;;;;;;;4.40;1.47;;;14.30;99.90;;;;;;4918437;29;20187;-81
2020/12/22 11:42:26;;;;;;;5.77;1.70;;;14.30;99.90;;;;;;4919482;29;20240;-80
2020/12/22 11:44:51;;;;;;;3.77;1.30;;;14.40;99.90;;;;;;4921877;29;20200;-80
2020/12/22 11:47:17;;;;;;;2.87;1.20;;;14.40;99.90;;;;;;4921690;29;20741;-78
2020/12/22 11:49:43;;;;;;;3.37;1.10;;;14.40;99.90;;;;;;4920822;29;20197;-80
2020/12/22 11:52:11;;;;;;;4.33;1.40;;;14.40;99.90;;;;;;4922011;29;20174;-81
2020/12/22 11:54:37;;;;;;;6.27;1.93;;;14.50;99.90;;;;;;4921656;29;20235;-78
2020/12/22 11:57:04;;;;;;;4.53;1.70;;;14.50;99.90;;;;;;4903991;29;20169;-80
2020/12/22 11:59:32;;;;;;;4.93;1.50;;;14.50;99.90;;;;;;4904161;29;20182;-82
2020/12/22 12:02:01;;;;;;;5.93;1.60;;;14.60;99.90;;;;;;4921065;29;20162;-80
2020/12/22 12:04:27;;;;;;;6.50;1.63;;;14.60;99.90;;;;;;4920803;29;20218;-81
2020/12/22 12:06:53;;;;;;;6.83;1.50;;;14.60;99.90;;;;;;4920921;29;20171;-79
2020/12/22 12:09:19;;;;;;;5.53;1.43;;;14.60;99.90;;;;;;4903397;29;20177;-82
2020/12/22 12:11:49;;;;;;;5.50;1.47;;;14.50;99.90;;;;;;4920316;29;20190;-79
2020/12/22 12:14:15;;;;;;;8.10;2.40;;;14.60;99.90;;;;;;4904891;29;20178;-78
2020/12/22 12:16:44;;;;;;;4.20;1.50;;;14.50;99.90;;;;;;4922126;29;20190;-80
2020/12/22 12:19:10;;;;;;;4.37;1.40;;;14.50;99.90;;;;;;4920631;29;20218;-80
2020/12/22 12:21:35;;;;;;;5.23;2.03;;;14.60;99.90;;;;;;4922103;29;20186;-80
2020/12/22 12:24:02;;;;;;;5.83;1.70;;;14.60;99.90;;;;;;4903510;29;20268;-78
2020/12/22 12:26:28;;;;;;;6.40;1.37;;;14.60;99.90;;;;;;4921156;29;20166;-79
2020/12/22 12:28:53;;;;;;;5.57;1.43;;;14.40;99.90;;;;;;4920661;29;20174;-80
2020/12/22 12:31:21;;;;;;;6.30;1.83;;;14.40;99.90;;;;;;4920258;29;20170;-79
2020/12/22 12:33:48;;;;;;;6.03;1.57;;;14.30;99.90;;;;;;4919429;29;20173;-80
2020/12/22 12:36:14;;;;;;;5.60;1.50;;;14.30;99.90;;;;;;4902603;29;20281;-81
2020/12/22 12:38:40;;;;;;;6.10;1.50;;;14.30;99.90;;;;;;4903894;29;20650;-79
2020/12/22 12:41:12;;;;;;;4.53;1.40;;;14.40;99.90;;;;;;4919982;29;20166;-79
2020/12/22 12:43:38;;;;;;;7.80;1.43;;;14.40;99.90;;;;;;4903221;29;20304;-80
2020/12/22 12:46:05;;;;;;;6.97;2.27;;;14.40;99.90;;;;;;4919677;29;20237;-81
2020/12/22 12:48:34;;;;;;;5.13;2.10;;;14.30;99.90;;;;;;4903350;29;20221;-79
2020/12/22 12:51:00;;;;;;;5.93;2.60;;;14.50;99.90;;;;;;4919334;29;20184;-81
2020/12/22 12:53:26;;;;;;;5.73;2.33;;;14.60;99.90;;;;;;4919420;29;20178;-80